Time;durP1;ratioP1;P1;durP2;ratioP2;P2;SDS_P1;SDS_P2;PMS_P1;PMS_P2;Temp;Humidity;BMP_temperature;BMP_pressure;BME280_temperature;BME280_humidity;BME280_pressure;Samples;Min_cycle;Max_cycle;Signal;HPM_P1;HPM_P2
2023/06/28 00:01:11;;;;;;;8.10;2.80;;;40.50;16.50;;;;;;5107776;28;20036;-65
2023/06/28 00:03:38;;;;;;;9.50;2.53;;;40.40;16.40;;;;;;5104915;28;20035;-60
2023/06/28 00:06:05;;;;;;;17.00;2.60;;;40.40;16.60;;;;;;5108600;28;20023;-63
2023/06/28 00:08:32;;;;;;;22.85;3.10;;;40.40;16.50;;;;;;5106798;28;20041;-60
2023/06/28 00:10:59;;;;;;;17.67;3.28;;;40.40;16.30;;;;;;5107423;28;20122;-60
2023/06/28 00:13:26;;;;;;;11.38;2.75;;;40.40;17.20;;;;;;5108393;28;20085;-61
2023/06/28 00:15:52;;;;;;;13.82;3.13;;;40.20;16.60;;;;;;5106369;28;20514;-64
2023/06/28 00:18:18;;;;;;;9.82;2.25;;;40.20;16.70;;;;;;5106470;28;20031;-63
2023/06/28 00:20:45;;;;;;;12.80;2.40;;;40.20;16.70;;;;;;5100270;28;20019;-61
2023/06/28 00:23:13;;;;;;;11.75;2.50;;;40.10;16.60;;;;;;5103507;28;20105;-62
2023/06/28 00:25:41;;;;;;;11.05;2.70;;;40.00;16.60;;;;;;5104885;28;20026;-63
2023/06/28 00:28:07;;;;;;;12.55;2.63;;;40.10;16.30;;;;;;5103741;28;20054;-63
2023/06/28 00:30:34;;;;;;;11.25;2.90;;;39.90;16.00;;;;;;5104143;28;20468;-62
2023/06/28 00:33:00;;;;;;;13.18;3.55;;;39.90;16.10;;;;;;5107868;28;20117;-62
2023/06/28 00:35:27;;;;;;;11.60;2.58;;;40.00;16.30;;;;;;5104593;28;20479;-62
2023/06/28 00:37:53;;;;;;;12.93;2.55;;;40.10;16.60;;;;;;5108450;28;20027;-59
2023/06/28 00:40:20;;;;;;;14.68;2.92;;;40.00;17.20;;;;;;5107956;28;20026;-59
2023/06/28 00:42:46;;;;;;;9.73;2.83;;;39.90;16.90;;;;;;5101700;28;20073;-63
2023/06/28 00:45:14;;;;;;;18.35;3.00;;;39.80;17.10;;;;;;5099343;28;20055;-62
2023/06/28 00:47:42;;;;;;;15.57;2.72;;;39.80;17.20;;;;;;5100045;28;20015;-62
2023/06/28 00:50:10;;;;;;;28.10;3.35;;;39.70;17.20;;;;;;5101196;28;20076;-60
2023/06/28 00:52:36;;;;;;;10.45;3.40;;;39.80;17.60;;;;;;5102246;28;20036;-62
2023/06/28 00:55:03;;;;;;;8.82;3.00;;;39.70;17.60;;;;;;5103247;28;20408;-60
2023/06/28 00:57:30;;;;;;;11.43;3.15;;;39.60;18.40;;;;;;5108203;28;20054;-61
2023/06/28 00:59:58;;;;;;;9.48;3.42;;;39.50;18.10;;;;;;5107649;28;20042;-63
2023/06/28 01:02:26;;;;;;;12.52;3.65;;;39.40;18.10;;;;;;5106933;28;20449;-64
2023/06/28 01:04:57;;;;;;;11.88;3.97;;;39.30;18.90;;;;;;5107892;28;20540;-63
2023/06/28 01:07:26;;;;;;;16.20;3.25;;;39.20;18.80;;;;;;5101607;28;20124;-61
2023/06/28 01:09:52;;;;;;;16.15;3.53;;;39.20;18.80;;;;;;5100582;28;20029;-62
2023/06/28 01:12:19;;;;;;;11.80;3.05;;;39.10;19.10;;;;;;5105365;28;20086;-61
2023/06/28 01:14:45;;;;;;;11.93;3.10;;;39.00;18.70;;;;;;5098884;28;20116;-64
2023/06/28 01:17:12;;;;;;;11.77;5.50;;;39.00;18.20;;;;;;5103287;28;20102;-65
2023/06/28 01:19:39;;;;;;;12.48;3.72;;;39.00;18.10;;;;;;5109492;28;20057;-63
2023/06/28 01:22:09;;;;;;;7.60;2.97;;;38.90;17.60;;;;;;5112308;28;20527;-62
2023/06/28 01:24:37;;;;;;;14.80;2.83;;;38.80;17.60;;;;;;5109388;28;20506;-58
2023/06/28 01:27:04;;;;;;;13.02;2.80;;;38.70;17.80;;;;;;5108048;28;20057;-58
2023/06/28 01:29:31;;;;;;;9.18;3.53;;;38.60;17.80;;;;;;5090360;28;20371;-60
2023/06/28 01:31:57;;;;;;;12.80;3.15;;;38.60;18.00;;;;;;5109759;28;20041;-61
2023/06/28 01:34:26;;;;;;;13.32;2.92;;;38.60;18.00;;;;;;5106981;28;20381;-60
2023/06/28 01:36:56;;;;;;;8.60;2.75;;;38.50;18.40;;;;;;5108499;28;20425;-62
2023/06/28 01:39:23;;;;;;;10.68;2.50;;;38.40;17.90;;;;;;5109889;28;20095;-60
2023/06/28 01:41:52;;;;;;;12.57;2.63;;;38.30;17.80;;;;;;5109303;28;20072;-61
2023/06/28 01:44:19;;;;;;;12.88;2.83;;;38.20;17.70;;;;;;5110553;28;20045;-59
2023/06/28 01:46:46;;;;;;;24.23;3.00;;;38.10;17.60;;;;;;5111596;28;20043;-60
2023/06/28 01:49:12;;;;;;;13.70;3.20;;;37.90;17.70;;;;;;5105069;28;20095;-59
2023/06/28 01:51:39;;;;;;;16.20;3.00;;;37.90;18.10;;;;;;5105516;28;20505;-63
2023/06/28 01:54:05;;;;;;;8.07;2.50;;;37.80;18.30;;;;;;5111147;28;20059;-62
2023/06/28 01:56:32;;;;;;;10.50;2.30;;;37.70;17.80;;;;;;5110410;28;20120;-58
2023/06/28 01:58:58;;;;;;;10.77;2.33;;;37.70;18.40;;;;;;5109250;28;20057;-59
2023/06/28 02:01:25;;;;;;;9.52;3.10;;;37.60;18.60;;;;;;5110506;28;20051;-64
2023/06/28 02:03:51;;;;;;;12.35;2.50;;;37.60;18.40;;;;;;5109635;28;20400;-64
2023/06/28 02:06:18;;;;;;;5.30;2.20;;;37.50;18.40;;;;;;5110936;28;20040;-66
2023/06/28 02:08:45;;;;;;;10.57;2.88;;;37.40;18.30;;;;;;5105152;28;20052;-64
2023/06/28 02:11:11;;;;;;;52.72;7.38;;;37.30;18.60;;;;;;5107248;28;20535;-66
2023/06/28 02:13:37;;;;;;;14.00;3.72;;;37.20;19.20;;;;;;5108593;28;20045;-62
2023/06/28 02:16:04;;;;;;;21.38;3.83;;;37.10;18.50;;;;;;5108923;28;20043;-68
2023/06/28 02:18:31;;;;;;;18.05;3.72;;;37.00;17.70;;;;;;5109183;28;20155;-65
2023/06/28 02:20:57;;;;;;;11.40;2.88;;;36.90;17.90;;;;;;5110863;28;20043;-65
2023/06/28 02:23:24;;;;;;;9.68;2.65;;;36.90;18.00;;;;;;5111212;28;20100;-66
2023/06/28 02:25:50;;;;;;;10.32;3.08;;;36.80;18.10;;;;;;5109305;28;20578;-67
2023/06/28 02:28:19;;;;;;;9.80;3.00;;;36.70;18.30;;;;;;5108974;28;20057;-65
2023/06/28 02:30:45;;;;;;;14.05;3.17;;;36.70;18.10;;;;;;5092094;28;20062;-64
2023/06/28 02:33:13;;;;;;;7.50;2.60;;;36.60;18.30;;;;;;5110407;28;20065;-65
2023/06/28 02:35:40;;;;;;;13.77;3.05;;;36.50;18.20;;;;;;5109956;28;20045;-65
2023/06/28 02:38:06;;;;;;;10.60;3.17;;;36.40;18.30;;;;;;5111022;28;20087;-66
2023/06/28 02:40:34;;;;;;;11.95;3.13;;;36.30;18.70;;;;;;5108705;28;20096;-66
2023/06/28 02:43:00;;;;;;;8.82;3.55;;;36.30;18.60;;;;;;5108137;28;20042;-62
2023/06/28 02:45:27;;;;;;;9.63;3.10;;;36.20;18.70;;;;;;5109629;28;20072;-63
2023/06/28 02:47:53;;;;;;;7.68;3.03;;;36.20;18.80;;;;;;5110225;28;20050;-61
2023/06/28 02:50:19;;;;;;;19.48;3.92;;;36.10;19.00;;;;;;5110453;28;20539;-61
2023/06/28 02:52:46;;;;;;;20.23;3.20;;;36.00;19.30;;;;;;5109887;28;20074;-61
2023/06/28 02:55:12;;;;;;;11.85;3.80;;;35.90;19.10;;;;;;5109410;28;20107;-62
2023/06/28 02:57:39;;;;;;;5.43;3.22;;;35.90;19.30;;;;;;5108646;28;20476;-62
2023/06/28 03:00:06;;;;;;;11.80;3.60;;;35.80;19.40;;;;;;5109954;28;20404;-63
2023/06/28 03:02:34;;;;;;;21.48;3.72;;;35.70;19.50;;;;;;5108333;28;20054;-61
2023/06/28 03:05:00;;;;;;;11.73;3.70;;;35.70;19.70;;;;;;5108244;28;20055;-63
2023/06/28 03:07:27;;;;;;;12.77;3.70;;;35.50;19.90;;;;;;5108323;28;20564;-62
2023/06/28 03:09:54;;;;;;;12.23;3.97;;;35.40;20.50;;;;;;5109467;28;20061;-61
2023/06/28 03:12:21;;;;;;;9.10;4.00;;;35.30;20.20;;;;;;5106737;28;20537;-62
2023/06/28 03:14:47;;;;;;;10.05;4.25;;;35.30;20.40;;;;;;5108022;28;20517;-62
2023/06/28 03:17:13;;;;;;;11.77;3.60;;;35.20;20.60;;;;;;5107088;28;20055;-60
2023/06/28 03:19:40;;;;;;;10.30;4.35;;;35.10;21.00;;;;;;5107998;28;20501;-62
2023/06/28 03:22:08;;;;;;;19.73;4.85;;;35.00;21.10;;;;;;5108236;28;20055;-61
2023/06/28 03:24:34;;;;;;;16.27;4.45;;;35.00;21.20;;;;;;5106387;28;20085;-62
2023/06/28 03:27:00;;;;;;;12.52;4.30;;;34.80;21.40;;;;;;5104588;28;20063;-61
2023/06/28 03:29:27;;;;;;;12.77;4.60;;;34.70;21.90;;;;;;5108208;28;20079;-61
2023/06/28 03:31:55;;;;;;;14.02;5.03;;;34.60;22.10;;;;;;5107830;28;20537;-59
2023/06/28 03:34:21;;;;;;;14.30;4.65;;;34.50;22.60;;;;;;5109051;28;20059;-60
2023/06/28 03:36:47;;;;;;;17.27;4.72;;;34.30;22.50;;;;;;5109672;28;20446;-60
2023/06/28 03:39:14;;;;;;;15.45;4.88;;;34.20;22.70;;;;;;5094839;28;20175;-60
2023/06/28 03:41:40;;;;;;;20.48;4.55;;;34.20;22.40;;;;;;5105414;28;20507;-59
2023/06/28 03:44:07;;;;;;;13.27;4.15;;;34.10;22.30;;;;;;5104551;28;20143;-59
2023/06/28 03:46:35;;;;;;;10.63;4.30;;;34.10;22.40;;;;;;5105699;28;20103;-61
2023/06/28 03:49:02;;;;;;;17.38;4.97;;;33.90;22.50;;;;;;5103117;28;20403;-62
2023/06/28 03:51:29;;;;;;;18.98;4.28;;;33.80;22.50;;;;;;5107172;28;20073;-61
2023/06/28 03:53:55;;;;;;;12.40;3.80;;;33.80;22.40;;;;;;5108870;28;20070;-62
2023/06/28 03:56:22;;;;;;;15.82;4.07;;;33.70;22.60;;;;;;5108401;28;20079;-66
2023/06/28 03:58:50;;;;;;;19.25;3.97;;;33.70;22.50;;;;;;5107256;28;20161;-61
2023/06/28 04:01:18;;;;;;;13.75;4.28;;;33.60;22.50;;;;;;5105907;28;20103;-62
2023/06/28 04:03:44;;;;;;;16.77;3.88;;;33.60;22.30;;;;;;5104706;28;20066;-63
2023/06/28 04:06:10;;;;;;;13.70;4.43;;;33.50;22.90;;;;;;5107326;28;20613;-59
2023/06/28 04:08:37;;;;;;;11.32;3.53;;;33.50;22.40;;;;;;5102524;28;20069;-62
2023/06/28 04:11:03;;;;;;;12.43;3.78;;;33.50;22.40;;;;;;5106233;28;20072;-59
2023/06/28 04:13:30;;;;;;;13.32;4.00;;;33.50;22.30;;;;;;5106981;28;20066;-61
2023/06/28 04:15:56;;;;;;;12.80;3.13;;;33.40;22.30;;;;;;5105410;28;20082;-60
2023/06/28 04:18:22;;;;;;;18.65;3.80;;;33.30;22.60;;;;;;5106879;28;20175;-62
2023/06/28 04:20:49;;;;;;;12.50;3.38;;;33.30;22.70;;;;;;5106408;28;20069;-63
2023/06/28 04:23:15;;;;;;;23.75;3.47;;;33.20;22.80;;;;;;5107426;28;20080;-60
2023/06/28 04:25:42;;;;;;;20.05;4.10;;;33.00;22.90;;;;;;5107742;28;20165;-61
2023/06/28 04:28:08;;;;;;;12.10;3.50;;;32.90;23.00;;;;;;5107142;28;20605;-63
2023/06/28 04:30:34;;;;;;;20.52;3.42;;;32.90;23.20;;;;;;5107821;28;20073;-63
2023/06/28 04:33:04;;;;;;;27.23;3.95;;;32.70;23.50;;;;;;5108310;28;20073;-63
2023/06/28 04:35:34;;;;;;;39.42;4.63;;;32.70;23.50;;;;;;5103421;28;20542;-60
2023/06/28 04:38:04;;;;;;;18.98;3.28;;;32.50;23.70;;;;;;5102305;28;20088;-60
2023/06/28 04:40:33;;;;;;;14.75;3.45;;;32.50;24.00;;;;;;5101402;28;20457;-63
2023/06/28 04:42:59;;;;;;;13.57;3.28;;;32.40;23.60;;;;;;5104881;28;20077;-63
2023/06/28 04:45:36;;;;;;;21.13;3.55;;;32.30;23.90;;;;;;5106559;28;20070;-61
2023/06/28 04:48:05;;;;;;;13.73;3.53;;;32.20;23.60;;;;;;5104884;28;20554;-62
2023/06/28 04:50:36;;;;;;;9.27;3.03;;;32.10;23.70;;;;;;5103516;28;20123;-62
2023/06/28 04:53:06;;;;;;;18.40;3.92;;;32.10;23.70;;;;;;5100359;28;20080;-62
2023/06/28 04:55:34;;;;;;;12.07;3.50;;;32.00;23.80;;;;;;5097451;28;20066;-62
2023/06/28 04:58:02;;;;;;;17.20;3.05;;;31.90;23.80;;;;;;5097789;28;20085;-63
2023/06/28 05:00:30;;;;;;;14.07;3.03;;;31.90;24.30;;;;;;5096940;28;20228;-62
2023/06/28 05:02:58;;;;;;;12.63;3.10;;;31.80;23.90;;;;;;5097360;28;20470;-64
2023/06/28 05:05:24;;;;;;;7.82;3.33;;;31.60;23.80;;;;;;5101703;28;20080;-63
2023/06/28 05:07:52;;;;;;;11.75;3.35;;;31.60;23.80;;;;;;5080238;28;20101;-63
2023/06/28 05:10:23;;;;;;;16.77;3.15;;;31.50;24.00;;;;;;5101720;28;20510;-64
2023/06/28 05:12:51;;;;;;;13.43;3.03;;;31.50;24.00;;;;;;5100896;28;20091;-63
2023/06/28 05:15:18;;;;;;;9.55;3.30;;;31.40;23.80;;;;;;5102858;28;20066;-62
2023/06/28 05:17:45;;;;;;;11.93;3.05;;;31.40;24.30;;;;;;5101799;28;20077;-62
2023/06/28 05:20:11;;;;;;;12.35;3.55;;;31.30;23.70;;;;;;5105326;28;20537;-62
2023/06/28 05:22:48;;;;;;;10.68;3.85;;;31.30;23.80;;;;;;5106427;28;20082;-60
2023/06/28 05:25:16;;;;;;;14.82;4.68;;;31.30;23.80;;;;;;5102729;28;20069;-62
2023/06/28 05:27:42;;;;;;;9.50;4.00;;;31.30;23.70;;;;;;5107363;28;20112;-62
2023/06/28 05:30:09;;;;;;;9.77;3.95;;;31.20;23.70;;;;;;5101098;28;20070;-62
2023/06/28 05:32:36;;;;;;;7.85;4.18;;;31.20;23.60;;;;;;5099551;28;20462;-63
2023/06/28 05:35:02;;;;;;;13.40;4.20;;;31.20;23.70;;;;;;5106592;28;20088;-61
2023/06/28 05:37:29;;;;;;;8.52;3.53;;;31.10;23.70;;;;;;5104893;28;20550;-63
2023/06/28 05:39:55;;;;;;;10.68;4.03;;;31.10;24.10;;;;;;5103583;28;20066;-63
2023/06/28 05:42:22;;;;;;;9.45;3.58;;;31.10;23.70;;;;;;5104326;28;20135;-63
2023/06/28 05:44:48;;;;;;;13.48;4.25;;;31.00;23.70;;;;;;5106962;28;20076;-61
2023/06/28 05:47:14;;;;;;;30.13;17.67;;;31.00;23.70;;;;;;5106807;28;20067;-63
2023/06/28 05:49:42;;;;;;;32.35;20.13;;;31.00;23.70;;;;;;5107501;28;20067;-61
2023/06/28 05:52:09;;;;;;;31.65;20.27;;;31.00;23.90;;;;;;5106643;28;20066;-61
2023/06/28 05:54:35;;;;;;;31.33;20.35;;;30.90;23.80;;;;;;5103244;28;20163;-62
2023/06/28 05:57:02;;;;;;;14.52;5.70;;;30.90;24.00;;;;;;5107658;28;20557;-63
2023/06/28 05:59:30;;;;;;;13.68;5.80;;;30.80;24.00;;;;;;5096551;28;20119;-64
2023/06/28 06:01:56;;;;;;;15.65;7.45;;;30.80;24.80;;;;;;5097438;28;20564;-63
2023/06/28 06:04:23;;;;;;;13.38;7.88;;;30.70;24.10;;;;;;5103919;28;20088;-60
2023/06/28 06:06:49;;;;;;;18.15;10.98;;;30.70;24.30;;;;;;5106687;28;20087;-63
2023/06/28 06:09:16;;;;;;;20.15;13.25;;;30.70;24.30;;;;;;5109856;28;20077;-63
2023/06/28 06:11:42;;;;;;;29.42;17.77;;;30.60;24.30;;;;;;5100347;28;20092;-62
2023/06/28 06:14:09;;;;;;;27.38;19.13;;;30.50;24.20;;;;;;5106769;28;20100;-62
2023/06/28 06:16:35;;;;;;;26.77;19.55;;;30.50;24.30;;;;;;5102570;28;20078;-63
2023/06/28 06:19:02;;;;;;;28.42;19.17;;;30.50;24.50;;;;;;5103443;28;20078;-64
2023/06/28 06:21:28;;;;;;;27.55;19.13;;;30.40;24.60;;;;;;5102126;28;20523;-63
2023/06/28 06:23:54;;;;;;;25.70;18.50;;;30.40;24.90;;;;;;5103987;28;20091;-61
2023/06/28 06:26:21;;;;;;;25.45;16.65;;;30.30;25.10;;;;;;5103419;28;20066;-62
2023/06/28 06:28:47;;;;;;;23.90;16.70;;;30.30;25.30;;;;;;5101467;28;20542;-63
2023/06/28 06:31:15;;;;;;;23.75;17.00;;;30.20;25.30;;;;;;5103471;28;20136;-64
2023/06/28 06:33:41;;;;;;;21.42;15.20;;;30.20;25.70;;;;;;5098347;28;20072;-62
2023/06/28 06:36:07;;;;;;;23.08;14.57;;;30.10;25.70;;;;;;5101626;28;20074;-62
2023/06/28 06:38:35;;;;;;;24.95;13.23;;;30.00;25.60;;;;;;5102504;28;20137;-63
2023/06/28 06:41:02;;;;;;;20.67;13.43;;;30.00;25.70;;;;;;5102427;28;20092;-63
2023/06/28 06:43:28;;;;;;;17.77;11.90;;;29.90;25.60;;;;;;5106092;28;20149;-63
2023/06/28 06:45:55;;;;;;;18.10;11.85;;;29.90;26.00;;;;;;5103498;28;20107;-64
2023/06/28 06:48:21;;;;;;;21.05;11.25;;;29.90;25.70;;;;;;5102695;28;20073;-63
2023/06/28 06:50:47;;;;;;;18.10;10.45;;;29.80;26.10;;;;;;5099201;28;20539;-65
2023/06/28 06:53:14;;;;;;;20.50;10.27;;;29.80;25.90;;;;;;5102509;28;20081;-65
2023/06/28 06:55:40;;;;;;;16.33;9.75;;;29.70;25.50;;;;;;5105445;28;20067;-63
2023/06/28 06:58:07;;;;;;;20.60;10.45;;;29.70;25.70;;;;;;5102969;28;20109;-64
2023/06/28 07:00:33;;;;;;;16.15;9.95;;;29.60;25.50;;;;;;5101078;28;20107;-65
2023/06/28 07:02:59;;;;;;;14.98;9.80;;;29.60;25.70;;;;;;5100275;28;20075;-62
2023/06/28 07:05:26;;;;;;;19.05;10.38;;;29.60;25.70;;;;;;5102538;28;20544;-63
2023/06/28 07:07:54;;;;;;;15.95;9.35;;;29.60;25.40;;;;;;5103541;28;20162;-62
2023/06/28 07:10:20;;;;;;;14.85;8.77;;;29.60;25.20;;;;;;5103805;28;20082;-64
2023/06/28 07:12:47;;;;;;;14.63;7.93;;;29.50;25.30;;;;;;5103522;28;20070;-62
2023/06/28 07:15:13;;;;;;;21.75;7.07;;;29.40;25.60;;;;;;5102670;28;20094;-62
2023/06/28 07:17:40;;;;;;;10.13;6.90;;;29.40;25.50;;;;;;5102938;28;20173;-62
2023/06/28 07:20:07;;;;;;;9.95;6.85;;;29.20;25.60;;;;;;5097976;28;20160;-61
2023/06/28 07:22:33;;;;;;;15.57;6.80;;;29.20;25.50;;;;;;5100658;28;20067;-61
2023/06/28 07:25:02;;;;;;;15.82;6.43;;;29.20;25.60;;;;;;5101266;28;20085;-62
2023/06/28 07:27:30;;;;;;;10.80;6.07;;;29.10;25.40;;;;;;5099087;28;20559;-62
2023/06/28 07:29:56;;;;;;;11.10;5.55;;;29.00;25.40;;;;;;5099273;28;20068;-63
2023/06/28 07:32:26;;;;;;;12.50;4.97;;;29.00;25.40;;;;;;5103088;28;20063;-64
2023/06/28 07:34:54;;;;;;;12.20;5.03;;;29.00;25.30;;;;;;5100757;28;20106;-63
2023/06/28 07:37:21;;;;;;;7.80;4.95;;;28.90;25.10;;;;;;5100789;28;20164;-63
2023/06/28 07:39:48;;;;;;;9.88;5.05;;;28.90;25.00;;;;;;5100223;28;20067;-62
2023/06/28 07:42:14;;;;;;;8.40;4.82;;;28.90;25.20;;;;;;5082430;28;20108;-63
2023/06/28 07:44:41;;;;;;;7.05;4.70;;;28.80;24.80;;;;;;5098503;28;20148;-63
2023/06/28 07:47:07;;;;;;;7.50;4.75;;;28.90;24.90;;;;;;5100433;28;20070;-61
2023/06/28 07:49:34;;;;;;;9.23;5.13;;;28.90;25.10;;;;;;5101526;28;20092;-61
2023/06/28 07:52:00;;;;;;;8.30;4.95;;;29.00;25.00;;;;;;5098091;28;20067;-60
2023/06/28 07:54:27;;;;;;;7.63;4.55;;;29.30;24.60;;;;;;5101903;28;20275;-62
2023/06/28 07:56:53;;;;;;;8.27;4.70;;;29.60;24.30;;;;;;5100860;28;20087;-61
2023/06/28 07:59:20;;;;;;;8.30;4.25;;;29.70;24.10;;;;;;5100513;28;20086;-61
2023/06/28 08:01:48;;;;;;;7.63;4.45;;;29.60;24.00;;;;;;5101517;28;20589;-62
2023/06/28 08:04:16;;;;;;;15.00;4.07;;;29.60;24.10;;;;;;5102633;28;20129;-64
2023/06/28 08:06:44;;;;;;;8.90;4.47;;;29.70;24.10;;;;;;5103915;28;20141;-64
2023/06/28 08:09:11;;;;;;;8.90;4.28;;;29.70;24.00;;;;;;5095997;28;20083;-62
2023/06/28 08:11:37;;;;;;;9.30;4.32;;;29.70;23.80;;;;;;5098978;28;20183;-61
2023/06/28 08:14:04;;;;;;;10.38;4.38;;;29.80;24.00;;;;;;5100322;28;20111;-66
2023/06/28 08:16:31;;;;;;;10.15;4.20;;;29.80;24.00;;;;;;5101153;28;20557;-61
2023/06/28 08:18:57;;;;;;;7.72;3.83;;;29.80;24.60;;;;;;5100939;28;20095;-63
2023/06/28 08:21:24;;;;;;;7.90;3.97;;;29.80;24.40;;;;;;5095978;28;20068;-63
2023/06/28 08:23:51;;;;;;;12.45;4.00;;;29.70;24.30;;;;;;5104610;28;20101;-61
2023/06/28 08:26:17;;;;;;;7.68;4.18;;;29.60;24.70;;;;;;5101725;28;20066;-61
2023/06/28 08:28:44;;;;;;;8.35;3.92;;;29.30;23.90;;;;;;5102527;28;20083;-60
2023/06/28 08:31:10;;;;;;;10.93;4.35;;;29.30;23.90;;;;;;5104521;28;20162;-61
2023/06/28 08:33:37;;;;;;;5.70;3.80;;;29.30;24.30;;;;;;5099413;28;20071;-64
2023/06/28 08:36:03;;;;;;;11.80;4.47;;;29.10;24.40;;;;;;5105006;28;20071;-61
2023/06/28 08:38:29;;;;;;;12.30;4.47;;;29.10;24.50;;;;;;5094876;28;20101;-62
2023/06/28 08:40:56;;;;;;;12.90;5.07;;;29.00;24.40;;;;;;5098717;28;20114;-61
2023/06/28 08:43:23;;;;;;;10.13;4.50;;;28.90;24.90;;;;;;5101124;28;20523;-62
2023/06/28 08:45:50;;;;;;;9.75;4.30;;;28.90;24.80;;;;;;5083697;28;20132;-63
2023/06/28 08:48:18;;;;;;;7.88;4.15;;;28.80;24.90;;;;;;5099258;28;20079;-62
2023/06/28 08:50:46;;;;;;;10.77;4.40;;;28.60;24.60;;;;;;5093223;28;20124;-64
2023/06/28 08:53:16;;;;;;;7.47;4.00;;;28.60;25.40;;;;;;5100161;28;20086;-60
2023/06/28 08:55:44;;;;;;;14.43;4.80;;;28.60;25.20;;;;;;5103266;28;20083;-61
2023/06/28 08:58:11;;;;;;;9.38;4.22;;;28.70;25.10;;;;;;5102788;28;20083;-61
2023/06/28 09:00:41;;;;;;;12.57;4.22;;;28.70;25.10;;;;;;5098990;28;20574;-64
2023/06/28 09:03:10;;;;;;;10.75;3.78;;;28.60;24.80;;;;;;5101372;28;20075;-59
2023/06/28 09:05:37;;;;;;;9.82;4.25;;;28.60;24.80;;;;;;5099927;28;20449;-63
2023/06/28 09:08:05;;;;;;;8.55;4.10;;;28.40;24.50;;;;;;5100372;28;20178;-61
2023/06/28 09:10:33;;;;;;;7.60;4.10;;;28.40;24.50;;;;;;5102638;28;20062;-61
2023/06/28 09:13:00;;;;;;;10.13;4.70;;;28.30;24.80;;;;;;5102784;28;20201;-61
2023/06/28 09:15:28;;;;;;;11.02;3.80;;;28.30;24.80;;;;;;5104801;28;20546;-63
2023/06/28 09:17:54;;;;;;;6.10;3.88;;;28.20;24.70;;;;;;5103568;28;20094;-65
2023/06/28 09:20:21;;;;;;;11.45;4.05;;;28.20;24.80;;;;;;5097456;28;20091;-64
2023/06/28 09:22:59;;;;;;;9.55;3.90;;;28.20;25.60;;;;;;5102189;28;20090;-62
2023/06/28 09:25:27;;;;;;;7.60;3.45;;;28.00;24.70;;;;;;5097331;28;20493;-60
2023/06/28 09:27:57;;;;;;;7.68;3.47;;;27.70;24.60;;;;;;5080912;28;21244;-59
2023/06/28 09:30:23;;;;;;;6.32;3.67;;;27.80;25.00;;;;;;5100072;28;20067;-62
2023/06/28 09:32:51;;;;;;;9.82;3.72;;;27.70;25.20;;;;;;5097014;28;20075;-61
2023/06/28 09:35:24;;;;;;;11.65;3.70;;;27.60;24.90;;;;;;5102902;28;20578;-62
2023/06/28 09:37:55;;;;;;;12.57;4.15;;;27.60;25.40;;;;;;5099460;28;20087;-61
2023/06/28 09:40:22;;;;;;;9.00;4.10;;;27.70;25.20;;;;;;5104722;28;20079;-61
2023/06/28 09:42:50;;;;;;;10.93;4.00;;;27.80;25.10;;;;;;5100761;28;20167;-64
2023/06/28 09:45:26;;;;;;;7.10;3.58;;;27.80;25.80;;;;;;5108162;28;20074;-64
2023/06/28 09:48:00;;;;;;;10.15;4.05;;;27.60;25.50;;;;;;5108019;28;20083;-61
2023/06/28 09:50:42;;;;;;;6.15;3.58;;;27.60;25.40;;;;;;5102601;28;20084;-61
2023/06/28 09:53:16;;;;;;;7.53;3.47;;;27.50;25.80;;;;;;5104656;28;20071;-61
2023/06/28 09:55:44;;;;;;;7.00;3.78;;;27.50;25.90;;;;;;5106907;28;20071;-61
2023/06/28 09:58:16;;;;;;;9.32;3.42;;;27.40;25.80;;;;;;5106011;28;20570;-63
2023/06/28 10:00:44;;;;;;;6.75;3.17;;;27.40;26.10;;;;;;5103031;28;20117;-62
2023/06/28 10:03:12;;;;;;;12.90;3.95;;;27.30;26.00;;;;;;5099515;28;20099;-63
2023/06/28 10:05:40;;;;;;;8.48;3.63;;;27.30;26.50;;;;;;5106327;28;20113;-63
2023/06/28 10:08:13;;;;;;;9.07;3.58;;;27.20;26.20;;;;;;5103309;28;20071;-63
2023/06/28 10:10:41;;;;;;;7.68;3.72;;;27.10;26.50;;;;;;5103371;28;20503;-62
2023/06/28 10:13:16;;;;;;;10.10;3.63;;;27.10;26.30;;;;;;5086146;28;20506;-61
2023/06/28 10:15:58;;;;;;;8.05;3.53;;;27.10;26.10;;;;;;5102590;28;20071;-63
2023/06/28 10:18:25;;;;;;;7.75;3.35;;;27.10;26.20;;;;;;5105277;28;20250;-61
2023/06/28 10:20:52;;;;;;;11.75;3.28;;;27.20;25.70;;;;;;5099589;28;20188;-58
2023/06/28 10:23:19;;;;;;;5.97;3.33;;;27.20;25.70;;;;;;5103538;28;20091;-58
2023/06/28 10:25:46;;;;;;;7.47;3.40;;;27.10;25.80;;;;;;5104670;28;20322;-60
2023/06/28 10:28:15;;;;;;;6.90;3.13;;;27.10;26.10;;;;;;5104134;28;20082;-63
2023/06/28 10:30:42;;;;;;;3.92;2.75;;;27.10;26.00;;;;;;5104325;28;20214;-59
2023/06/28 10:33:15;;;;;;;9.65;3.35;;;27.00;25.90;;;;;;5101658;28;20075;-65
2023/06/28 10:35:44;;;;;;;7.70;3.13;;;27.00;26.30;;;;;;5105435;28;20443;-60
2023/06/28 10:38:11;;;;;;;8.88;2.92;;;26.90;26.10;;;;;;5104550;28;20141;-62
2023/06/28 10:40:39;;;;;;;9.82;3.15;;;26.90;26.40;;;;;;5100247;28;20064;-65
2023/06/28 10:43:05;;;;;;;8.48;3.50;;;27.00;26.50;;;;;;5102615;28;20431;-63
2023/06/28 10:45:33;;;;;;;4.18;2.97;;;27.00;26.10;;;;;;5101554;28;20071;-61
2023/06/28 10:48:00;;;;;;;11.05;3.20;;;27.00;26.60;;;;;;5101066;28;20160;-61
2023/06/28 10:50:27;;;;;;;6.68;3.30;;;26.90;26.00;;;;;;5101881;28;20541;-61
2023/06/28 10:52:55;;;;;;;10.98;3.65;;;26.80;25.80;;;;;;5101633;28;20415;-61
2023/06/28 10:55:36;;;;;;;9.05;3.65;;;26.70;26.20;;;;;;5101175;28;20070;-61
2023/06/28 10:58:11;;;;;;;7.47;3.63;;;26.60;25.90;;;;;;5105440;28;20079;-65
2023/06/28 11:00:40;;;;;;;10.07;3.40;;;26.60;26.60;;;;;;5100248;28;20102;-60
2023/06/28 11:03:07;;;;;;;8.15;3.78;;;26.60;26.40;;;;;;5104757;28;20063;-64
2023/06/28 11:05:46;;;;;;;6.28;3.75;;;26.60;26.10;;;;;;5102469;28;20573;-62
2023/06/28 11:08:13;;;;;;;7.85;4.00;;;26.50;26.30;;;;;;5102746;28;20223;-63
2023/06/28 11:10:45;;;;;;;7.10;3.88;;;26.50;26.10;;;;;;5103096;28;20119;-59
2023/06/28 11:13:36;;;;;;;8.75;3.70;;;26.50;26.00;;;;;;5100966;28;20075;-62
2023/06/28 11:16:23;;;;;;;13.15;4.07;;;26.50;26.00;;;;;;5089890;28;20102;-58
2023/06/28 11:18:51;;;;;;;11.23;3.97;;;26.50;26.20;;;;;;5097423;28;20495;-60
2023/06/28 11:21:27;;;;;;;11.07;3.42;;;26.50;26.10;;;;;;5103133;28;20109;-60
2023/06/28 11:23:55;;;;;;;6.13;3.28;;;26.50;26.00;;;;;;5104336;28;20600;-63
2023/06/28 11:26:33;;;;;;;7.13;3.20;;;26.40;25.90;;;;;;5103787;28;20506;-63
2023/06/28 11:28:59;;;;;;;6.22;3.30;;;26.40;26.00;;;;;;5098550;28;20078;-62
2023/06/28 11:31:39;;;;;;;8.00;3.35;;;26.40;25.60;;;;;;5100452;28;20162;-61
2023/06/28 11:34:09;;;;;;;5.60;3.33;;;26.40;25.30;;;;;;5105001;28;20221;-63
2023/06/28 11:36:36;;;;;;;6.30;3.55;;;26.40;25.30;;;;;;5104911;28;20435;-63
2023/06/28 11:39:04;;;;;;;10.75;3.63;;;26.40;25.40;;;;;;5102432;28;20091;-60
2023/06/28 11:41:34;;;;;;;6.90;3.28;;;26.40;26.10;;;;;;5103506;28;20063;-63
2023/06/28 11:44:06;;;;;;;6.15;3.15;;;26.50;26.20;;;;;;5100884;28;20087;-65
2023/06/28 11:46:34;;;;;;;7.05;3.67;;;26.50;25.70;;;;;;5102488;28;20146;-60
2023/06/28 11:49:00;;;;;;;9.20;3.28;;;26.40;25.80;;;;;;5099843;28;20170;-60
2023/06/28 11:51:27;;;;;;;6.28;3.35;;;26.30;26.60;;;;;;5100159;28;20446;-62
2023/06/28 11:53:56;;;;;;;7.50;3.33;;;26.20;27.00;;;;;;5103771;28;20075;-62
2023/06/28 11:56:52;;;;;;;10.38;3.72;;;26.20;26.10;;;;;;5100832;28;20480;-62
2023/06/28 11:59:22;;;;;;;9.90;3.72;;;26.20;25.90;;;;;;5034506;28;20106;-63
2023/06/28 12:02:03;;;;;;;9.18;3.78;;;26.20;25.50;;;;;;5036242;28;20206;-61
2023/06/28 12:04:31;;;;;;;13.48;3.40;;;26.10;25.80;;;;;;5034090;28;20172;-61
2023/06/28 12:07:01;;;;;;;8.75;3.95;;;26.00;26.10;;;;;;5034141;28;20077;-60
2023/06/28 12:09:29;;;;;;;10.60;3.83;;;25.90;26.30;;;;;;5034610;28;20131;-62
2023/06/28 12:11:58;;;;;;;7.57;3.58;;;25.80;26.60;;;;;;5034400;28;20087;-60
2023/06/28 12:14:27;;;;;;;11.40;4.07;;;25.80;27.80;;;;;;5035867;28;20661;-61
2023/06/28 12:16:55;;;;;;;10.10;3.97;;;25.70;27.70;;;;;;5036840;28;20639;-59
2023/06/28 12:19:32;;;;;;;13.05;3.60;;;25.70;27.10;;;;;;5035679;28;20906;-60
2023/06/28 12:22:02;;;;;;;12.20;3.88;;;25.70;27.40;;;;;;5033544;28;20826;-60
2023/06/28 12:24:29;;;;;;;20.27;4.55;;;25.50;28.80;;;;;;5034291;28;20542;-62
2023/06/28 12:26:58;;;;;;;15.65;4.43;;;25.50;28.50;;;;;;5034689;28;20108;-62
2023/06/28 12:29:31;;;;;;;11.52;4.72;;;25.40;27.50;;;;;;5033662;28;20109;-59
2023/06/28 12:32:06;;;;;;;11.77;4.78;;;25.40;27.70;;;;;;5032689;28;20079;-58
2023/06/28 12:34:34;;;;;;;14.65;4.70;;;25.20;29.70;;;;;;5038023;28;20087;-59
2023/06/28 12:37:11;;;;;;;22.60;4.47;;;25.00;28.90;;;;;;5078992;28;20495;-58
2023/06/28 12:39:38;;;;;;;;;;;25.10;28.70;;;;;;5076479;28;20168;-62
2023/06/28 12:42:09;;;;;;;14.88;4.72;;;25.10;28.40;;;;;;5077042;28;19961;-62
2023/06/28 12:44:49;;;;;;;17.92;5.00;;;25.10;29.30;;;;;;5081574;28;20143;-61